Aries — WDD5491 — position and weather

sailwx.info

Track history (hours):
 
Tides and Currents Weather Stations Pressure Air Temp Water Temp Dewpoint Dewpoint Depression Visibility Wind Speed Wind Dir Waves Ship Positions

Aries

Owner: Vulcan Materials Company, Richmond, VA. More information available from US FCC via Universal Licensing System and Coast Guard Vessel Documentation Center.

Last reported at 2017-Dec-16 05:31 UTC. Time now 2017-Dec-16 09:16 UTC.
Position N 36°43' W 076°13'.

Length 18 m; draft 3 m.

Type: Tug. MMSI: 367159120.

Date/timePositionNaut miles runAvg speedWind from/ knotsBaromVisibWave heightAir tempDewpointWater temp
2017-Dec-16 05:31N 36°43' W 076°13'1 5.7
2017-Dec-16 05:22N 36°43' W 076°14'1 1.9
2017-Dec-16 04:47N 36°43' W 076°15'1 4.0
2017-Dec-16 04:30N 36°44' W 076°16'2 4.4
2017-Dec-16 03:59N 36°46' W 076°18'1 2.0
2017-Dec-16 03:30N 36°47' W 076°18'3 6.1
2017-Dec-16 03:00N 36°50' W 076°18'2 3.3
2017-Dec-16 02:29N 36°50' W 076°16'0 0.3
2017-Dec-16 02:00N 36°50' W 076°16'1 2.5
2017-Dec-16 01:28N 36°50' W 076°17'0 0.0
2017-Dec-16 00:58N 36°50' W 076°17'0 0.0
2017-Dec-16 00:28N 36°50' W 076°17'0 0.0
2017-Dec-15 23:58N 36°50' W 076°17'0 0.0
2017-Dec-15 23:28N 36°50' W 076°17'0 0.0
2017-Dec-15 22:55N 36°50' W 076°17'0 0.0
2017-Dec-15 22:28N 36°50' W 076°17'0 0.2
2017-Dec-15 22:01N 36°50' W 076°18'1 2.8
2017-Dec-15 21:29N 36°50' W 076°16'0 0.1
2017-Dec-15 20:59N 36°50' W 076°16'0 0.3
2017-Dec-15 20:27N 36°50' W 076°16'2 3.7
2017-Dec-15 20:01N 36°51' W 076°18'3 5.7
2017-Dec-15 19:31N 36°53' W 076°20'4 5.8
2017-Dec-15 18:53N 36°56' W 076°20'3 0.1
2017-Dec-13 23:54N 36°57' W 076°24'3 6.3
2017-Dec-13 23:25N 36°56' W 076°20'3 8.3
2017-Dec-13 23:00N 36°52' W 076°20'3 6.5
2017-Dec-13 22:30N 36°50' W 076°17'1 1.8
2017-Dec-13 22:00N 36°50' W 076°16'0 0.0
2017-Dec-13 21:31N 36°50' W 076°16'1 2.9
2017-Dec-13 21:00N 36°50' W 076°18'0 0.0
2017-Dec-13 20:30N 36°50' W 076°17'0 0.0
2017-Dec-13 20:00N 36°50' W 076°17'0 0.0
2017-Dec-13 19:30N 36°50' W 076°17'0 0.0
2017-Dec-13 19:00N 36°50' W 076°17'1 2.0
2017-Dec-13 18:30N 36°50' W 076°16'0 0.7
2017-Dec-13 17:59N 36°50' W 076°16'0 0.1
2017-Dec-13 17:30N 36°50' W 076°16'1 2.8
2017-Dec-13 17:00N 36°50' W 076°18'0 0.0
2017-Dec-13 16:30N 36°50' W 076°18'0 0.0
2017-Dec-13 16:00N 36°50' W 076°17'0 0.0
2017-Dec-13 15:30N 36°50' W 076°18'1 2.9
2017-Dec-13 15:01N 36°50' W 076°16'1 1.4
2017-Dec-13 14:30N 36°50' W 076°15'0 0.0
2017-Dec-13 14:00N 36°50' W 076°15'0 0.0
2017-Dec-13 13:30N 36°50' W 076°15'0 0.0
2017-Dec-13 13:00N 36°50' W 076°15'0 0.0
2017-Dec-13 12:30N 36°50' W 076°15'2 4.3
2017-Dec-13 12:00N 36°50' W 076°17'0 0.0
2017-Dec-13 11:30N 36°50' W 076°17'0 0.0
2017-Dec-13 11:01N 36°50' W 076°17'0 0.0
2017-Dec-13 10:31N 36°50' W 076°17'0 0.0
2017-Dec-13 10:00N 36°50' W 076°17'0 0.0
2017-Dec-13 09:31N 36°50' W 076°17'0 0.0
2017-Dec-13 09:01N 36°50' W 076°17'0 0.0
2017-Dec-13 08:31N 36°50' W 076°17'0 0.0
2017-Dec-13 08:01N 36°50' W 076°17'0 0.0
2017-Dec-13 07:30N 36°50' W 076°17'0 0.0
2017-Dec-13 07:00N 36°50' W 076°17'0 0.0
2017-Dec-13 06:31N 36°50' W 076°17'0 0.0
2017-Dec-13 06:01N 36°50' W 076°17'0 0.0
2017-Dec-13 05:31N 36°50' W 076°17'0 0.0
2017-Dec-13 05:00N 36°50' W 076°17'0 0.0
2017-Dec-13 04:31N 36°50' W 076°17'0 0.0
2017-Dec-13 04:01N 36°50' W 076°17'0 0.0
2017-Dec-13 03:30N 36°50' W 076°17'0 0.0
2017-Dec-13 03:01N 36°50' W 076°17'0 0.0
2017-Dec-13 02:31N 36°50' W 076°17'0 0.3
2017-Dec-13 02:01N 36°50' W 076°18'2 4.6
2017-Dec-13 01:31N 36°50' W 076°15'1 1.5
2017-Dec-13 00:58N 36°50' W 076°16'1 1.5
2017-Dec-13 00:31N 36°50' W 076°15'1 1.3
2017-Dec-12 23:54N 36°50' W 076°16'0 0.2
2017-Dec-12 23:28N 36°50' W 076°16'2 4.8
2017-Dec-12 23:01N 36°49' W 076°17'1 1.9
2017-Dec-12 22:30N 36°50' W 076°18'1 1.5
2017-Dec-12 22:00N 36°50' W 076°17'0 0.0
2017-Dec-12 21:30N 36°50' W 076°17'0 0.0
2017-Dec-12 21:00N 36°50' W 076°17'0 0.0
2017-Dec-12 20:30N 36°50' W 076°17'0 0.0
2017-Dec-12 20:00N 36°50' W 076°17'0 0.0
2017-Dec-12 19:30N 36°50' W 076°17'0 0.0
2017-Dec-12 19:00N 36°50' W 076°17'0 0.0
2017-Dec-12 18:30N 36°50' W 076°17'0 0.0
2017-Dec-12 18:00N 36°50' W 076°17'0 0.0
2017-Dec-12 17:30N 36°50' W 076°17'0 0.0
2017-Dec-12 17:00N 36°50' W 076°17'0 0.0
2017-Dec-12 16:30N 36°50' W 076°17'0 0.0
2017-Dec-12 16:00N 36°50' W 076°17'0 0.0
2017-Dec-12 15:31N 36°50' W 076°17'0 0.0
2017-Dec-12 15:00N 36°50' W 076°17'0 0.0
2017-Dec-12 14:30N 36°50' W 076°17'0 0.0
2017-Dec-12 14:00N 36°50' W 076°17'0 0.0
2017-Dec-12 13:31N 36°50' W 076°17'0 0.0
2017-Dec-12 13:00N 36°50' W 076°17'2 4.0
2017-Dec-12 12:31N 36°50' W 076°15'2 4.0
2017-Dec-12 12:00N 36°50' W 076°17'0 0.0
2017-Dec-12 11:31N 36°50' W 076°17'0 0.0
2017-Dec-12 11:00N 36°50' W 076°17'0 0.0
2017-Dec-12 10:30N 36°50' W 076°17'0 0.0
2017-Dec-12 10:00N 36°50' W 076°17'0 0.0
2017-Dec-12 09:30N 36°50' W 076°17'0 0.0
2017-Dec-12 09:00N 36°50' W 076°17'0 0.0
2017-Dec-12 08:30N 36°50' W 076°17'0 0.0
2017-Dec-12 08:00N 36°50' W 076°17'0 0.0
2017-Dec-12 07:30N 36°50' W 076°17'0 0.0
2017-Dec-12 07:00N 36°50' W 076°17'0 0.0
2017-Dec-12 06:30N 36°50' W 076°17'0 0.0
2017-Dec-12 06:00N 36°50' W 076°17'0 0.0
2017-Dec-12 05:30N 36°50' W 076°17'0 0.0
2017-Dec-12 05:00N 36°50' W 076°17'0 0.0
2017-Dec-12 04:30N 36°50' W 076°17'0 0.0
2017-Dec-12 04:00N 36°50' W 076°17'0 0.0
2017-Dec-12 03:30N 36°50' W 076°17'0 0.0
2017-Dec-12 03:00N 36°50' W 076°17'0 0.0
2017-Dec-12 02:30N 36°50' W 076°17'1 2.0
2017-Dec-12 02:00N 36°50' W 076°16'1 1.1
2017-Dec-12 01:30N 36°50' W 076°17'4 8.3
2017-Dec-12 01:01N 36°54' W 076°20'2 1.0
2017-Dec-11 22:55N 36°56' W 076°20'3 8.4
2017-Dec-11 22:30N 36°52' W 076°20'4 7.3
2017-Dec-11 22:01N 36°49' W 076°17'1 2.2
2017-Dec-11 21:30N 36°48' W 076°17'2 4.7
2017-Dec-11 21:00N 36°50' W 076°17'0 0.4
2017-Dec-11 20:30N 36°50' W 076°17'2 3.7
2017-Dec-11 20:00N 36°50' W 076°15'1 1.5
2017-Dec-11 19:30N 36°50' W 076°16'1 2.5
2017-Dec-11 19:00N 36°51' W 076°17'1 2.0
2017-Dec-11 18:30N 36°51' W 076°18'2 4.3
2017-Dec-11 18:00N 36°53' W 076°20'3 5.4
2017-Dec-11 17:30N 36°55' W 076°20'1 0.1
2017-Dec-10 17:21N 36°57' W 076°22'2 5.2
2017-Dec-10 17:00N 36°55' W 076°20'3 6.3
2017-Dec-10 16:30N 36°52' W 076°20'3 5.5
2017-Dec-10 16:00N 36°50' W 076°17'1 1.6
2017-Dec-10 15:30N 36°50' W 076°16'0 0.0
2017-Dec-10 14:54N 36°50' W 076°16'0 0.0
2017-Dec-10 14:30N 36°50' W 076°16'0 0.0
2017-Dec-10 14:00N 36°50' W 076°16'0 0.0
2017-Dec-10 13:24N 36°50' W 076°16'0 0.0
2017-Dec-10 13:00N 36°50' W 076°16'0 0.1
2017-Dec-10 12:30N 36°50' W 076°16'1 2.6
2017-Dec-10 12:00N 36°50' W 076°17'0 0.0
2017-Dec-10 11:31N 36°50' W 076°17'0 0.0
2017-Dec-10 11:00N 36°50' W 076°17'0 0.0
2017-Dec-10 10:30N 36°50' W 076°17'0 0.0
2017-Dec-10 10:00N 36°50' W 076°17'0 0.0
2017-Dec-10 09:30N 36°50' W 076°17'0 0.0
2017-Dec-10 09:00N 36°50' W 076°17'0 0.0
2017-Dec-10 08:30N 36°50' W 076°17'0 0.0
2017-Dec-10 08:00N 36°50' W 076°17'0 0.0
2017-Dec-10 07:30N 36°50' W 076°17'0 0.0
2017-Dec-10 07:00N 36°50' W 076°17'0 0.0
2017-Dec-10 06:30N 36°50' W 076°17'0 0.0
2017-Dec-10 06:01N 36°50' W 076°17'0 0.0
2017-Dec-10 05:30N 36°50' W 076°17'0 0.0
2017-Dec-10 05:00N 36°50' W 076°17'0 0.0
2017-Dec-10 04:30N 36°50' W 076°17'0 0.0
2017-Dec-10 04:00N 36°50' W 076°17'0 0.0
2017-Dec-10 03:30N 36°50' W 076°17'0 0.0
2017-Dec-10 03:00N 36°50' W 076°17'0 0.0
2017-Dec-10 02:30N 36°50' W 076°17'0 0.0
2017-Dec-10 02:00N 36°50' W 076°17'0 0.0
2017-Dec-10 01:30N 36°50' W 076°17'0 0.0
2017-Dec-10 01:00N 36°50' W 076°17'0 0.0
2017-Dec-10 00:30N 36°50' W 076°17'0 0.0
2017-Dec-09 23:46N 36°50' W 076°17'0 0.0
2017-Dec-09 23:28N 36°50' W 076°17'0 0.0
2017-Dec-09 22:59N 36°50' W 076°17'0 0.0
2017-Dec-09 22:26N 36°50' W 076°17'2 4.9
2017-Dec-09 22:01N 36°50' W 076°15'1 1.7
2017-Dec-09 21:30N 36°50' W 076°16'1 1.8
2017-Dec-09 21:00N 36°50' W 076°15'2 3.6
2017-Dec-09 20:30N 36°50' W 076°17'1 2.7
2017-Dec-09 20:00N 36°49' W 076°17'0 0.0
2017-Dec-09 19:30N 36°49' W 076°17'0 0.0
2017-Dec-09 19:00N 36°49' W 076°17'1 2.4
2017-Dec-09 18:30N 36°50' W 076°17'0 0.0
2017-Dec-09 18:00N 36°50' W 076°17'0 0.0
2017-Dec-09 17:30N 36°50' W 076°17'0 0.0
2017-Dec-09 17:00N 36°50' W 076°17'0 0.0
2017-Dec-09 16:30N 36°50' W 076°17'0 0.0
2017-Dec-09 16:00N 36°50' W 076°17'0 0.0
2017-Dec-09 15:30N 36°50' W 076°17'0 0.0
2017-Dec-09 15:00N 36°50' W 076°17'0 0.0
2017-Dec-09 14:30N 36°50' W 076°17'0 0.0
2017-Dec-09 14:00N 36°50' W 076°17'0 0.0
2017-Dec-09 13:30N 36°50' W 076°17'0 0.0
2017-Dec-09 13:00N 36°50' W 076°17'0 0.0
2017-Dec-09 12:30N 36°50' W 076°17'0 0.0
2017-Dec-09 12:00N 36°50' W 076°17'0 0.0
2017-Dec-09 11:30N 36°50' W 076°17'0 0.0
2017-Dec-09 11:00N 36°50' W 076°17'0 0.0
2017-Dec-09 10:30N 36°50' W 076°17'0 0.0
2017-Dec-09 10:00N 36°50' W 076°17'0 0.0
2017-Dec-09 09:30N 36°50' W 076°17'0 0.0
2017-Dec-09 09:00N 36°50' W 076°17'0 0.0
2017-Dec-09 08:30N 36°50' W 076°17'0 0.0
2017-Dec-09 08:00N 36°50' W 076°17'0 0.0
2017-Dec-09 07:30N 36°50' W 076°17'0 0.0
2017-Dec-09 07:00N 36°50' W 076°17'0 0.0
2017-Dec-09 06:30N 36°50' W 076°17'0 0.0
2017-Dec-09 06:00N 36°50' W 076°17'0 0.0
2017-Dec-09 05:30N 36°50' W 076°17'0 0.0
2017-Dec-09 05:00N 36°50' W 076°17'0 0.0
2017-Dec-09 04:30N 36°50' W 076°17'0 0.0
2017-Dec-09 04:00N 36°50' W 076°17'0 0.0
2017-Dec-09 03:30N 36°50' W 076°17'0 0.0
2017-Dec-09 03:00N 36°50' W 076°17'0 0.0
2017-Dec-09 02:30N 36°50' W 076°17'0 0.0
2017-Dec-09 02:00N 36°50' W 076°17'0 0.0
2017-Dec-09 01:29N 36°50' W 076°17'0 0.0
2017-Dec-09 01:01N 36°50' W 076°17'1 2.8
2017-Dec-09 00:30N 36°50' W 076°16'2 4.2
2017-Dec-09 00:00N 36°49' W 076°17'4 8.0
2017-Dec-08 23:30N 36°45' W 076°18'2 3.9
2017-Dec-08 23:00N 36°47' W 076°18'4 7.6
2017-Dec-08 22:31N 36°50' W 076°18'1 2.9
2017-Dec-08 22:00N 36°50' W 076°16'2 3.7
2017-Dec-08 21:30N 36°51' W 076°18'6 2.0
2017-Dec-08 18:35N 36°56' W 076°20'3 8.9
2017-Dec-08 18:15N 36°54' W 076°20'2 8.2
2017-Dec-08 18:00N 36°52' W 076°19'3 5.9
2017-Dec-08 17:30N 36°50' W 076°16'1 2.8
2017-Dec-08 17:00N 36°50' W 076°17'0 0.0
2017-Dec-08 16:30N 36°50' W 076°17'0 0.0
2017-Dec-08 16:00N 36°50' W 076°17'0 0.0
2017-Dec-08 15:30N 36°50' W 076°17'0 0.7
2017-Dec-08 15:00N 36°50' W 076°17'1 2.9
2017-Dec-08 14:30N 36°50' W 076°15'2 3.1
2017-Dec-08 14:00N 36°51' W 076°17'0 0.5
2017-Dec-08 13:30N 36°50' W 076°17'2 3.7
2017-Dec-08 13:00N 36°52' W 076°19'1 1.1
2017-Dec-08 12:30N 36°51' W 076°20'0 0.0
2017-Dec-08 12:00N 36°51' W 076°20'1 2.3
2017-Dec-08 11:30N 36°51' W 076°19'3 6.2
2017-Dec-08 11:00N 36°48' W 076°17'3 5.4
2017-Dec-08 10:30N 36°46' W 076°18'0 0.7
2017-Dec-08 10:00N 36°45' W 076°18'2 4.2
2017-Dec-08 09:30N 36°48' W 076°18'3 5.7
2017-Dec-08 09:00N 36°50' W 076°18'2 4.7
2017-Dec-08 08:30N 36°50' W 076°15'1 1.7
2017-Dec-08 08:01N 36°50' W 076°16'0 0.3
2017-Dec-08 07:30N 36°50' W 076°16'1 2.4
2017-Dec-08 07:00N 36°51' W 076°17'1 2.7
2017-Dec-08 06:30N 36°51' W 076°19'2 4.6
2017-Dec-08 06:00N 36°53' W 076°20'3 5.1
2017-Dec-08 05:30N 36°56' W 076°20'2 3.8
2017-Dec-08 05:00N 36°57' W 076°22'0 0.0
2017-Dec-06 22:37N 36°57' W 076°22'2 5.2
2017-Dec-06 22:17N 36°56' W 076°20'2 6.5
2017-Dec-06 22:00N 36°54' W 076°20'3 6.1
2017-Dec-06 21:30N 36°51' W 076°19'1 2.9
2017-Dec-06 21:00N 36°50' W 076°17'  
Track history (hours):
 
Tides and Currents Weather Stations Pressure Air Temp Water Temp Dewpoint Dewpoint Depression Visibility Wind Speed Wind Dir Waves Ship Positions

Aries

Owner: Vulcan Materials Company, Richmond, VA. More information available from US FCC via Universal Licensing System and Coast Guard Vessel Documentation Center.

Last reported at 2017-Dec-16 05:31 UTC. Time now 2017-Dec-16 09:16 UTC.
Position N 36°43' W 076°13'.

Length 18 m; draft 3 m.

Type: Tug. MMSI: 367159120.

Date/timePositionNaut miles runAvg speedWind from/ knotsBaromVisibWave heightAir tempDewpointWater temp
2017-Dec-16 05:31N 36°43' W 076°13'1 5.7
2017-Dec-16 05:22N 36°43' W 076°14'1 1.9
2017-Dec-16 04:47N 36°43' W 076°15'1 4.0
2017-Dec-16 04:30N 36°44' W 076°16'2 4.4
2017-Dec-16 03:59N 36°46' W 076°18'1 2.0
2017-Dec-16 03:30N 36°47' W 076°18'3 6.1
2017-Dec-16 03:00N 36°50' W 076°18'2 3.3
2017-Dec-16 02:29N 36°50' W 076°16'0 0.3
2017-Dec-16 02:00N 36°50' W 076°16'1 2.5
2017-Dec-16 01:28N 36°50' W 076°17'0 0.0
2017-Dec-16 00:58N 36°50' W 076°17'0 0.0
2017-Dec-16 00:28N 36°50' W 076°17'0 0.0
2017-Dec-15 23:58N 36°50' W 076°17'0 0.0
2017-Dec-15 23:28N 36°50' W 076°17'0 0.0
2017-Dec-15 22:55N 36°50' W 076°17'0 0.0
2017-Dec-15 22:28N 36°50' W 076°17'0 0.2
2017-Dec-15 22:01N 36°50' W 076°18'1 2.8
2017-Dec-15 21:29N 36°50' W 076°16'0 0.1
2017-Dec-15 20:59N 36°50' W 076°16'0 0.3
2017-Dec-15 20:27N 36°50' W 076°16'2 3.7
2017-Dec-15 20:01N 36°51' W 076°18'3 5.7
2017-Dec-15 19:31N 36°53' W 076°20'4 5.8
2017-Dec-15 18:53N 36°56' W 076°20'3 0.1
2017-Dec-13 23:54N 36°57' W 076°24'3 6.3
2017-Dec-13 23:25N 36°56' W 076°20'3 8.3
2017-Dec-13 23:00N 36°52' W 076°20'3 6.5
2017-Dec-13 22:30N 36°50' W 076°17'1 1.8
2017-Dec-13 22:00N 36°50' W 076°16'0 0.0
2017-Dec-13 21:31N 36°50' W 076°16'1 2.9
2017-Dec-13 21:00N 36°50' W 076°18'0 0.0
2017-Dec-13 20:30N 36°50' W 076°17'0 0.0
2017-Dec-13 20:00N 36°50' W 076°17'0 0.0
2017-Dec-13 19:30N 36°50' W 076°17'0 0.0
2017-Dec-13 19:00N 36°50' W 076°17'1 2.0
2017-Dec-13 18:30N 36°50' W 076°16'0 0.7
2017-Dec-13 17:59N 36°50' W 076°16'0 0.1
2017-Dec-13 17:30N 36°50' W 076°16'1 2.8
2017-Dec-13 17:00N 36°50' W 076°18'0 0.0
2017-Dec-13 16:30N 36°50' W 076°18'0 0.0
2017-Dec-13 16:00N 36°50' W 076°17'0 0.0
2017-Dec-13 15:30N 36°50' W 076°18'1 2.9
2017-Dec-13 15:01N 36°50' W 076°16'1 1.4
2017-Dec-13 14:30N 36°50' W 076°15'0 0.0
2017-Dec-13 14:00N 36°50' W 076°15'0 0.0
2017-Dec-13 13:30N 36°50' W 076°15'0 0.0
2017-Dec-13 13:00N 36°50' W 076°15'0 0.0
2017-Dec-13 12:30N 36°50' W 076°15'2 4.3
2017-Dec-13 12:00N 36°50' W 076°17'0 0.0
2017-Dec-13 11:30N 36°50' W 076°17'0 0.0
2017-Dec-13 11:01N 36°50' W 076°17'0 0.0
2017-Dec-13 10:31N 36°50' W 076°17'0 0.0
2017-Dec-13 10:00N 36°50' W 076°17'0 0.0
2017-Dec-13 09:31N 36°50' W 076°17'0 0.0
2017-Dec-13 09:01N 36°50' W 076°17'0 0.0
2017-Dec-13 08:31N 36°50' W 076°17'0 0.0
2017-Dec-13 08:01N 36°50' W 076°17'0 0.0
2017-Dec-13 07:30N 36°50' W 076°17'0 0.0
2017-Dec-13 07:00N 36°50' W 076°17'0 0.0
2017-Dec-13 06:31N 36°50' W 076°17'0 0.0
2017-Dec-13 06:01N 36°50' W 076°17'0 0.0
2017-Dec-13 05:31N 36°50' W 076°17'0 0.0
2017-Dec-13 05:00N 36°50' W 076°17'0 0.0
2017-Dec-13 04:31N 36°50' W 076°17'0 0.0
2017-Dec-13 04:01N 36°50' W 076°17'0 0.0
2017-Dec-13 03:30N 36°50' W 076°17'0 0.0
2017-Dec-13 03:01N 36°50' W 076°17'0 0.0
2017-Dec-13 02:31N 36°50' W 076°17'0 0.3
2017-Dec-13 02:01N 36°50' W 076°18'2 4.6
2017-Dec-13 01:31N 36°50' W 076°15'1 1.5
2017-Dec-13 00:58N 36°50' W 076°16'1 1.5
2017-Dec-13 00:31N 36°50' W 076°15'1 1.3
2017-Dec-12 23:54N 36°50' W 076°16'0 0.2
2017-Dec-12 23:28N 36°50' W 076°16'2 4.8
2017-Dec-12 23:01N 36°49' W 076°17'1 1.9
2017-Dec-12 22:30N 36°50' W 076°18'1 1.5
2017-Dec-12 22:00N 36°50' W 076°17'0 0.0
2017-Dec-12 21:30N 36°50' W 076°17'0 0.0
2017-Dec-12 21:00N 36°50' W 076°17'0 0.0
2017-Dec-12 20:30N 36°50' W 076°17'0 0.0
2017-Dec-12 20:00N 36°50' W 076°17'0 0.0
2017-Dec-12 19:30N 36°50' W 076°17'0 0.0
2017-Dec-12 19:00N 36°50' W 076°17'0 0.0
2017-Dec-12 18:30N 36°50' W 076°17'0 0.0
2017-Dec-12 18:00N 36°50' W 076°17'0 0.0
2017-Dec-12 17:30N 36°50' W 076°17'0 0.0
2017-Dec-12 17:00N 36°50' W 076°17'0 0.0
2017-Dec-12 16:30N 36°50' W 076°17'0 0.0
2017-Dec-12 16:00N 36°50' W 076°17'0 0.0
2017-Dec-12 15:31N 36°50' W 076°17'0 0.0
2017-Dec-12 15:00N 36°50' W 076°17'0 0.0
2017-Dec-12 14:30N 36°50' W 076°17'0 0.0
2017-Dec-12 14:00N 36°50' W 076°17'0 0.0
2017-Dec-12 13:31N 36°50' W 076°17'0 0.0
2017-Dec-12 13:00N 36°50' W 076°17'2 4.0
2017-Dec-12 12:31N 36°50' W 076°15'2 4.0
2017-Dec-12 12:00N 36°50' W 076°17'0 0.0
2017-Dec-12 11:31N 36°50' W 076°17'0 0.0
2017-Dec-12 11:00N 36°50' W 076°17'0 0.0
2017-Dec-12 10:30N 36°50' W 076°17'0 0.0
2017-Dec-12 10:00N 36°50' W 076°17'0 0.0
2017-Dec-12 09:30N 36°50' W 076°17'0 0.0
2017-Dec-12 09:00N 36°50' W 076°17'0 0.0
2017-Dec-12 08:30N 36°50' W 076°17'0 0.0
2017-Dec-12 08:00N 36°50' W 076°17'0 0.0
2017-Dec-12 07:30N 36°50' W 076°17'0 0.0
2017-Dec-12 07:00N 36°50' W 076°17'0 0.0
2017-Dec-12 06:30N 36°50' W 076°17'0 0.0
2017-Dec-12 06:00N 36°50' W 076°17'0 0.0
2017-Dec-12 05:30N 36°50' W 076°17'0 0.0
2017-Dec-12 05:00N 36°50' W 076°17'0 0.0
2017-Dec-12 04:30N 36°50' W 076°17'0 0.0
2017-Dec-12 04:00N 36°50' W 076°17'0 0.0
2017-Dec-12 03:30N 36°50' W 076°17'0 0.0
2017-Dec-12 03:00N 36°50' W 076°17'0 0.0
2017-Dec-12 02:30N 36°50' W 076°17'1 2.0
2017-Dec-12 02:00N 36°50' W 076°16'1 1.1
2017-Dec-12 01:30N 36°50' W 076°17'4 8.3
2017-Dec-12 01:01N 36°54' W 076°20'2 1.0
2017-Dec-11 22:55N 36°56' W 076°20'3 8.4
2017-Dec-11 22:30N 36°52' W 076°20'4 7.3
2017-Dec-11 22:01N 36°49' W 076°17'1 2.2
2017-Dec-11 21:30N 36°48' W 076°17'2 4.7
2017-Dec-11 21:00N 36°50' W 076°17'0 0.4
2017-Dec-11 20:30N 36°50' W 076°17'2 3.7
2017-Dec-11 20:00N 36°50' W 076°15'1 1.5
2017-Dec-11 19:30N 36°50' W 076°16'1 2.5
2017-Dec-11 19:00N 36°51' W 076°17'1 2.0
2017-Dec-11 18:30N 36°51' W 076°18'2 4.3
2017-Dec-11 18:00N 36°53' W 076°20'3 5.4
2017-Dec-11 17:30N 36°55' W 076°20'1 0.1
2017-Dec-10 17:21N 36°57' W 076°22'2 5.2
2017-Dec-10 17:00N 36°55' W 076°20'3 6.3
2017-Dec-10 16:30N 36°52' W 076°20'3 5.5
2017-Dec-10 16:00N 36°50' W 076°17'1 1.6
2017-Dec-10 15:30N 36°50' W 076°16'0 0.0
2017-Dec-10 14:54N 36°50' W 076°16'0 0.0
2017-Dec-10 14:30N 36°50' W 076°16'0 0.0
2017-Dec-10 14:00N 36°50' W 076°16'0 0.0
2017-Dec-10 13:24N 36°50' W 076°16'0 0.0
2017-Dec-10 13:00N 36°50' W 076°16'0 0.1
2017-Dec-10 12:30N 36°50' W 076°16'1 2.6
2017-Dec-10 12:00N 36°50' W 076°17'0 0.0
2017-Dec-10 11:31N 36°50' W 076°17'0 0.0
2017-Dec-10 11:00N 36°50' W 076°17'0 0.0
2017-Dec-10 10:30N 36°50' W 076°17'0 0.0
2017-Dec-10 10:00N 36°50' W 076°17'0 0.0
2017-Dec-10 09:30N 36°50' W 076°17'0 0.0
2017-Dec-10 09:00N 36°50' W 076°17'0 0.0
2017-Dec-10 08:30N 36°50' W 076°17'0 0.0
2017-Dec-10 08:00N 36°50' W 076°17'0 0.0
2017-Dec-10 07:30N 36°50' W 076°17'0 0.0
2017-Dec-10 07:00N 36°50' W 076°17'0 0.0
2017-Dec-10 06:30N 36°50' W 076°17'0 0.0
2017-Dec-10 06:01N 36°50' W 076°17'0 0.0
2017-Dec-10 05:30N 36°50' W 076°17'0 0.0
2017-Dec-10 05:00N 36°50' W 076°17'0 0.0
2017-Dec-10 04:30N 36°50' W 076°17'0 0.0
2017-Dec-10 04:00N 36°50' W 076°17'0 0.0
2017-Dec-10 03:30N 36°50' W 076°17'0 0.0
2017-Dec-10 03:00N 36°50' W 076°17'0 0.0
2017-Dec-10 02:30N 36°50' W 076°17'0 0.0
2017-Dec-10 02:00N 36°50' W 076°17'0 0.0
2017-Dec-10 01:30N 36°50' W 076°17'0 0.0
2017-Dec-10 01:00N 36°50' W 076°17'0 0.0
2017-Dec-10 00:30N 36°50' W 076°17'0 0.0
2017-Dec-09 23:46N 36°50' W 076°17'0 0.0
2017-Dec-09 23:28N 36°50' W 076°17'0 0.0
2017-Dec-09 22:59N 36°50' W 076°17'0 0.0
2017-Dec-09 22:26N 36°50' W 076°17'2 4.9
2017-Dec-09 22:01N 36°50' W 076°15'1 1.7
2017-Dec-09 21:30N 36°50' W 076°16'1 1.8
2017-Dec-09 21:00N 36°50' W 076°15'2 3.6
2017-Dec-09 20:30N 36°50' W 076°17'1 2.7
2017-Dec-09 20:00N 36°49' W 076°17'0 0.0
2017-Dec-09 19:30N 36°49' W 076°17'0 0.0
2017-Dec-09 19:00N 36°49' W 076°17'1 2.4
2017-Dec-09 18:30N 36°50' W 076°17'0 0.0
2017-Dec-09 18:00N 36°50' W 076°17'0 0.0
2017-Dec-09 17:30N 36°50' W 076°17'0 0.0
2017-Dec-09 17:00N 36°50' W 076°17'0 0.0
2017-Dec-09 16:30N 36°50' W 076°17'0 0.0
2017-Dec-09 16:00N 36°50' W 076°17'0 0.0
2017-Dec-09 15:30N 36°50' W 076°17'0 0.0
2017-Dec-09 15:00N 36°50' W 076°17'0 0.0
2017-Dec-09 14:30N 36°50' W 076°17'0 0.0
2017-Dec-09 14:00N 36°50' W 076°17'0 0.0
2017-Dec-09 13:30N 36°50' W 076°17'0 0.0
2017-Dec-09 13:00N 36°50' W 076°17'0 0.0
2017-Dec-09 12:30N 36°50' W 076°17'0 0.0
2017-Dec-09 12:00N 36°50' W 076°17'0 0.0
2017-Dec-09 11:30N 36°50' W 076°17'0 0.0
2017-Dec-09 11:00N 36°50' W 076°17'0 0.0
2017-Dec-09 10:30N 36°50' W 076°17'0 0.0
2017-Dec-09 10:00N 36°50' W 076°17'0 0.0
2017-Dec-09 09:30N 36°50' W 076°17'0 0.0
2017-Dec-09 09:00N 36°50' W 076°17'0 0.0
2017-Dec-09 08:30N 36°50' W 076°17'0 0.0
2017-Dec-09 08:00N 36°50' W 076°17'0 0.0
2017-Dec-09 07:30N 36°50' W 076°17'0 0.0
2017-Dec-09 07:00N 36°50' W 076°17'0 0.0
2017-Dec-09 06:30N 36°50' W 076°17'0 0.0
2017-Dec-09 06:00N 36°50' W 076°17'0 0.0
2017-Dec-09 05:30N 36°50' W 076°17'0 0.0
2017-Dec-09 05:00N 36°50' W 076°17'0 0.0
2017-Dec-09 04:30N 36°50' W 076°17'0 0.0
2017-Dec-09 04:00N 36°50' W 076°17'0 0.0
2017-Dec-09 03:30N 36°50' W 076°17'0 0.0
2017-Dec-09 03:00N 36°50' W 076°17'0 0.0
2017-Dec-09 02:30N 36°50' W 076°17'0 0.0
2017-Dec-09 02:00N 36°50' W 076°17'0 0.0
2017-Dec-09 01:29N 36°50' W 076°17'0 0.0
2017-Dec-09 01:01N 36°50' W 076°17'1 2.8
2017-Dec-09 00:30N 36°50' W 076°16'2 4.2
2017-Dec-09 00:00N 36°49' W 076°17'4 8.0
2017-Dec-08 23:30N 36°45' W 076°18'2 3.9
2017-Dec-08 23:00N 36°47' W 076°18'4 7.6
2017-Dec-08 22:31N 36°50' W 076°18'1 2.9
2017-Dec-08 22:00N 36°50' W 076°16'2 3.7
2017-Dec-08 21:30N 36°51' W 076°18'6 2.0
2017-Dec-08 18:35N 36°56' W 076°20'3 8.9
2017-Dec-08 18:15N 36°54' W 076°20'2 8.2
2017-Dec-08 18:00N 36°52' W 076°19'3 5.9
2017-Dec-08 17:30N 36°50' W 076°16'1 2.8
2017-Dec-08 17:00N 36°50' W 076°17'0 0.0
2017-Dec-08 16:30N 36°50' W 076°17'0 0.0
2017-Dec-08 16:00N 36°50' W 076°17'0 0.0
2017-Dec-08 15:30N 36°50' W 076°17'0 0.7
2017-Dec-08 15:00N 36°50' W 076°17'1 2.9
2017-Dec-08 14:30N 36°50' W 076°15'2 3.1
2017-Dec-08 14:00N 36°51' W 076°17'0 0.5
2017-Dec-08 13:30N 36°50' W 076°17'2 3.7
2017-Dec-08 13:00N 36°52' W 076°19'1 1.1
2017-Dec-08 12:30N 36°51' W 076°20'0 0.0
2017-Dec-08 12:00N 36°51' W 076°20'1 2.3
2017-Dec-08 11:30N 36°51' W 076°19'3 6.2
2017-Dec-08 11:00N 36°48' W 076°17'3 5.4
2017-Dec-08 10:30N 36°46' W 076°18'0 0.7
2017-Dec-08 10:00N 36°45' W 076°18'2 4.2
2017-Dec-08 09:30N 36°48' W 076°18'3 5.7
2017-Dec-08 09:00N 36°50' W 076°18'2 4.7
2017-Dec-08 08:30N 36°50' W 076°15'1 1.7
2017-Dec-08 08:01N 36°50' W 076°16'0 0.3
2017-Dec-08 07:30N 36°50' W 076°16'1 2.4
2017-Dec-08 07:00N 36°51' W 076°17'1 2.7
2017-Dec-08 06:30N 36°51' W 076°19'2 4.6
2017-Dec-08 06:00N 36°53' W 076°20'3 5.1
2017-Dec-08 05:30N 36°56' W 076°20'2 3.8
2017-Dec-08 05:00N 36°57' W 076°22'0 0.0
2017-Dec-06 22:37N 36°57' W 076°22'2 5.2
2017-Dec-06 22:17N 36°56' W 076°20'2 6.5
2017-Dec-06 22:00N 36°54' W 076°20'3 6.1
2017-Dec-06 21:30N 36°51' W 076°19'1 2.9
2017-Dec-06 21:00N 36°50' W 076°17'  

Dump ship's entire track history